ENT7552 HEGN-EPWA
Flight info
| Callsign | ENT7552 |
|---|---|
| Flight time | 4h 8m |
| Altitude | 36000 |
| Route | BOTIX1B BOTIX V608 NABED T55 GINDI W8 ALPID/N0454F370 DCT GESON/N0456F360 Q777 IMPIP DCT AZMEY DCT RASDA M855 TOMBI UA16 DERYA/N0467F380 UA16 AYT UQ23 OSVEL UL619 MAKOL DCT KARIL DCT KEKED DCT LENOV DCT ORTEB DCT KONZI DCT LOGDA |
| Aircraft | B738/M-DFGHIJ1LORVWXY/EB1 |
Departure
| Time | 2026-05-04 11:56 |
|---|---|
| Airport | Hurghada International Airport (HEGN) |
Arrival
| Time | 2026-05-04 16:04 |
|---|---|
| Airport | Warsaw Chopin Airport (EPWA) |
| Time | Latitude | Longitude | Altitude | Speed | Heading |
|---|---|---|---|---|---|
| 2026-05-04 10:47 | 27.18099 | 33.80552 | 57 ft | 0 kts | 75° |
| 2026-05-04 11:45 | 27.18094 | 33.80533 | 50 ft | 4 kts | 78° |
| 2026-05-04 11:45 | 27.18090 | 33.80503 | 50 ft | 4 kts | 87° |
| 2026-05-04 11:45 | 27.18091 | 33.80473 | 52 ft | 4 kts | 105° |
| 2026-05-04 11:45 | 27.18103 | 33.80450 | 54 ft | 4 kts | 158° |
| 2026-05-04 11:46 | 27.18111 | 33.80447 | 52 ft | 0 kts | 167° |
| 2026-05-04 11:46 | 27.18112 | 33.80447 | 52 ft | 0 kts | 167° |
| 2026-05-04 11:50 | 27.18108 | 33.80448 | 51 ft | 2 kts | 167° |
| 2026-05-04 11:50 | 27.18083 | 33.80454 | 54 ft | 6 kts | 167° |
| 2026-05-04 11:50 | 27.18026 | 33.80470 | 54 ft | 11 kts | 165° |
| 2026-05-04 11:51 | 27.17937 | 33.80497 | 53 ft | 16 kts | 165° |
| 2026-05-04 11:51 | 27.17844 | 33.80459 | 57 ft | 16 kts | 250° |
| 2026-05-04 11:51 | 27.17816 | 33.80340 | 52 ft | 16 kts | 253° |
| 2026-05-04 11:51 | 27.17722 | 33.80310 | 52 ft | 16 kts | 165° |
| 2026-05-04 11:52 | 27.17613 | 33.80342 | 49 ft | 17 kts | 165° |
| 2026-05-04 11:52 | 27.17491 | 33.80380 | 51 ft | 19 kts | 167° |
| 2026-05-04 11:52 | 27.17367 | 33.80416 | 50 ft | 18 kts | 165° |
| 2026-05-04 11:52 | 27.17245 | 33.80451 | 49 ft | 19 kts | 165° |
| 2026-05-04 11:53 | 27.17112 | 33.80494 | 49 ft | 20 kts | 166° |
| 2026-05-04 11:53 | 27.16977 | 33.80531 | 50 ft | 20 kts | 165° |
| 2026-05-04 11:53 | 27.16848 | 33.80569 | 48 ft | 19 kts | 165° |
| 2026-05-04 11:53 | 27.16723 | 33.80606 | 46 ft | 18 kts | 165° |
| 2026-05-04 11:55 | 27.16208 | 33.80587 | 42 ft | 14 kts | 346° |
| 2026-05-04 11:55 | 27.16322 | 33.80553 | 42 ft | 33 kts | 345° |
| 2026-05-04 11:56 | 27.16756 | 33.80425 | 46 ft | 95 kts | 345° |
| 2026-05-04 11:56 | 27.17569 | 33.80182 | 53 ft | 145 kts | 345° |
| 2026-05-04 11:56 | 27.18612 | 33.79885 | 474 ft | 159 kts | 344° |
| 2026-05-04 11:56 | 27.19699 | 33.79549 | 1296 ft | 159 kts | 342° |
| 2026-05-04 11:57 | 27.20735 | 33.79199 | 2084 ft | 158 kts | 340° |
| 2026-05-04 11:57 | 27.21826 | 33.78840 | 2737 ft | 163 kts | 340° |
| 2026-05-04 11:57 | 27.22911 | 33.78501 | 3413 ft | 166 kts | 338° |
| 2026-05-04 11:57 | 27.24074 | 33.78097 | 3714 ft | 188 kts | 337° |
| 2026-05-04 11:58 | 27.25387 | 33.77647 | 3925 ft | 208 kts | 338° |
| 2026-05-04 11:58 | 27.26876 | 33.77135 | 3941 ft | 241 kts | 338° |
| 2026-05-04 11:58 | 27.28542 | 33.76566 | 4414 ft | 255 kts | 339° |
| 2026-05-04 11:58 | 27.30252 | 33.75977 | 5135 ft | 257 kts | 334° |
| 2026-05-04 11:59 | 27.31723 | 33.74906 | 5772 ft | 251 kts | 307° |
| 2026-05-04 11:59 | 27.32582 | 33.73236 | 6440 ft | 247 kts | 285° |
| 2026-05-04 11:59 | 27.32847 | 33.71337 | 7073 ft | 247 kts | 268° |
| 2026-05-04 11:59 | 27.32506 | 33.69441 | 7694 ft | 249 kts | 253° |
| 2026-05-04 12:00 | 27.31953 | 33.67579 | 8134 ft | 253 kts | 253° |
| 2026-05-04 12:00 | 27.31387 | 33.65699 | 8810 ft | 253 kts | 252° |
| 2026-05-04 12:00 | 27.30824 | 33.63826 | 9522 ft | 254 kts | 252° |
| 2026-05-04 12:00 | 27.30260 | 33.61938 | 10122 ft | 257 kts | 252° |
| 2026-05-04 12:01 | 27.29683 | 33.59998 | 10362 ft | 274 kts | 252° |
| 2026-05-04 12:01 | 27.29060 | 33.57894 | 10510 ft | 293 kts | 252° |
| 2026-05-04 12:02 | 27.24652 | 33.42985 | 11872 ft | 359 kts | 252° |
| 2026-05-04 12:03 | 27.23862 | 33.40309 | 12244 ft | 362 kts | 252° |
| 2026-05-04 12:03 | 27.23067 | 33.37624 | 12751 ft | 362 kts | 252° |
| 2026-05-04 12:03 | 27.22276 | 33.34947 | 13280 ft | 361 kts | 253° |
| 2026-05-04 12:03 | 27.21782 | 33.32185 | 13688 ft | 363 kts | 268° |
| 2026-05-04 12:04 | 27.21974 | 33.29325 | 13965 ft | 369 kts | 275° |
| 2026-05-04 12:04 | 27.22253 | 33.26466 | 14412 ft | 369 kts | 274° |
| 2026-05-04 12:04 | 27.22512 | 33.23584 | 14786 ft | 371 kts | 274° |
| 2026-05-04 12:04 | 27.22756 | 33.20701 | 15232 ft | 371 kts | 274° |
| 2026-05-04 12:05 | 27.22995 | 33.17813 | 15644 ft | 373 kts | 274° |
| 2026-05-04 12:05 | 27.23233 | 33.14900 | 15971 ft | 376 kts | 274° |
| 2026-05-04 12:05 | 27.23470 | 33.11974 | 16371 ft | 376 kts | 274° |
| 2026-05-04 12:05 | 27.23708 | 33.09042 | 16767 ft | 377 kts | 274° |
| 2026-05-04 12:06 | 27.23947 | 33.06105 | 17142 ft | 379 kts | 274° |
| 2026-05-04 12:06 | 27.24188 | 33.03146 | 17523 ft | 380 kts | 274° |
| 2026-05-04 12:06 | 27.24429 | 33.00170 | 17805 ft | 384 kts | 274° |
| 2026-05-04 12:06 | 27.24666 | 32.97219 | 18199 ft | 384 kts | 274° |
| 2026-05-04 12:07 | 27.24907 | 32.94217 | 18520 ft | 385 kts | 274° |
| 2026-05-04 12:07 | 27.25147 | 32.91211 | 18811 ft | 387 kts | 274° |
| 2026-05-04 12:07 | 27.25389 | 32.88189 | 19093 ft | 388 kts | 274° |
| 2026-05-04 12:07 | 27.25630 | 32.85162 | 19374 ft | 390 kts | 274° |
| 2026-05-04 12:08 | 27.25872 | 32.82121 | 19646 ft | 391 kts | 274° |
| 2026-05-04 12:08 | 27.26115 | 32.79063 | 19920 ft | 393 kts | 274° |
| 2026-05-04 12:08 | 27.26357 | 32.75997 | 20200 ft | 395 kts | 274° |
| 2026-05-04 12:08 | 27.26600 | 32.72921 | 20456 ft | 396 kts | 274° |
| 2026-05-04 12:09 | 27.26840 | 32.69867 | 20713 ft | 398 kts | 274° |
| 2026-05-04 12:09 | 27.27083 | 32.66767 | 20969 ft | 399 kts | 274° |
| 2026-05-04 12:09 | 27.27327 | 32.63649 | 21226 ft | 400 kts | 274° |
| 2026-05-04 12:09 | 27.27571 | 32.60523 | 21468 ft | 402 kts | 274° |
| 2026-05-04 12:10 | 27.27815 | 32.57385 | 21709 ft | 403 kts | 274° |
| 2026-05-04 12:10 | 27.28059 | 32.54235 | 21928 ft | 405 kts | 274° |
| 2026-05-04 12:10 | 27.28303 | 32.51077 | 22139 ft | 407 kts | 274° |
| 2026-05-04 12:10 | 27.28548 | 32.47900 | 22350 ft | 408 kts | 274° |
| 2026-05-04 12:11 | 27.28792 | 32.44723 | 22601 ft | 409 kts | 274° |
| 2026-05-04 12:11 | 27.29037 | 32.41533 | 22813 ft | 410 kts | 274° |
| 2026-05-04 12:11 | 27.29282 | 32.38337 | 23023 ft | 411 kts | 274° |
| 2026-05-04 12:11 | 27.29526 | 32.35122 | 23221 ft | 413 kts | 274° |
| 2026-05-04 12:12 | 27.29900 | 32.31916 | 23395 ft | 416 kts | 281° |
| 2026-05-04 12:12 | 27.30763 | 32.28843 | 23588 ft | 419 kts | 289° |
| 2026-05-04 12:12 | 27.31997 | 32.25863 | 23769 ft | 423 kts | 295° |
| 2026-05-04 12:12 | 27.33623 | 32.23083 | 23920 ft | 428 kts | 303° |
| 2026-05-04 12:13 | 27.35479 | 32.20453 | 24092 ft | 429 kts | 304° |
| 2026-05-04 12:14 | 27.48374 | 32.01714 | 25208 ft | 435 kts | 303° |
| 2026-05-04 12:15 | 27.50220 | 31.99008 | 25363 ft | 436 kts | 303° |
| 2026-05-04 12:15 | 27.52071 | 31.96294 | 25511 ft | 437 kts | 303° |
| 2026-05-04 12:15 | 27.53923 | 31.93576 | 25665 ft | 438 kts | 303° |
| 2026-05-04 12:15 | 27.55756 | 31.90885 | 25794 ft | 439 kts | 303° |
| 2026-05-04 12:16 | 27.57614 | 31.88157 | 25934 ft | 439 kts | 303° |
| 2026-05-04 12:16 | 27.59474 | 31.85424 | 26081 ft | 440 kts | 303° |
| 2026-05-04 12:16 | 27.61338 | 31.82683 | 26244 ft | 440 kts | 303° |
| 2026-05-04 12:16 | 27.63197 | 31.79948 | 26466 ft | 439 kts | 303° |
| 2026-05-04 12:17 | 27.65051 | 31.77220 | 26699 ft | 437 kts | 303° |
| 2026-05-04 12:17 | 27.66898 | 31.74499 | 26911 ft | 437 kts | 303° |
| 2026-05-04 12:17 | 27.68748 | 31.71773 | 27100 ft | 436 kts | 303° |
| 2026-05-04 12:17 | 27.70591 | 31.69055 | 27304 ft | 436 kts | 302° |
| 2026-05-04 12:18 | 27.72432 | 31.66336 | 27533 ft | 434 kts | 302° |
| 2026-05-04 12:18 | 27.74269 | 31.63624 | 27739 ft | 434 kts | 302° |
| 2026-05-04 12:18 | 27.76101 | 31.60917 | 27929 ft | 433 kts | 302° |
| 2026-05-04 12:18 | 27.77927 | 31.58215 | 28141 ft | 433 kts | 302° |
| 2026-05-04 12:19 | 27.79732 | 31.55545 | 28361 ft | 432 kts | 302° |
| 2026-05-04 12:19 | 27.81554 | 31.52847 | 28586 ft | 431 kts | 302° |
| 2026-05-04 12:19 | 27.83371 | 31.50154 | 28800 ft | 430 kts | 302° |
| 2026-05-04 12:19 | 27.85184 | 31.47466 | 29004 ft | 430 kts | 302° |
| 2026-05-04 12:20 | 27.86994 | 31.44782 | 29215 ft | 429 kts | 302° |
| 2026-05-04 12:20 | 27.88806 | 31.42092 | 29448 ft | 428 kts | 302° |
| 2026-05-04 12:20 | 27.90523 | 31.39542 | 29663 ft | 427 kts | 302° |
| 2026-05-04 12:20 | 27.92141 | 31.37137 | 29850 ft | 426 kts | 302° |
| 2026-05-04 12:21 | 27.93934 | 31.34470 | 30083 ft | 426 kts | 302° |
| 2026-05-04 12:21 | 27.95701 | 31.31840 | 30285 ft | 425 kts | 302° |
| 2026-05-04 12:21 | 27.97486 | 31.29183 | 30474 ft | 423 kts | 302° |
| 2026-05-04 12:21 | 27.99270 | 31.26524 | 30672 ft | 422 kts | 302° |
| 2026-05-04 12:22 | 28.01043 | 31.23882 | 30864 ft | 421 kts | 302° |
| 2026-05-04 12:22 | 28.02813 | 31.21242 | 31034 ft | 420 kts | 302° |
| 2026-05-04 12:22 | 28.04724 | 31.18720 | 31170 ft | 428 kts | 313° |
| 2026-05-04 12:22 | 28.07253 | 31.16851 | 31293 ft | 443 kts | 328° |
| 2026-05-04 12:23 | 28.10196 | 31.15682 | 31478 ft | 454 kts | 339° |
| 2026-05-04 12:23 | 28.13390 | 31.15319 | 31565 ft | 472 kts | 355° |
| 2026-05-04 12:23 | 28.16686 | 31.15638 | 31694 ft | 477 kts | 358° |
| 2026-05-04 12:23 | 28.19991 | 31.16055 | 31818 ft | 478 kts | 358° |
| 2026-05-04 12:24 | 28.23296 | 31.16489 | 31952 ft | 478 kts | 358° |
| 2026-05-04 12:24 | 28.26595 | 31.16909 | 32117 ft | 476 kts | 358° |
| 2026-05-04 12:24 | 28.29886 | 31.17309 | 32266 ft | 476 kts | 358° |
| 2026-05-04 12:24 | 28.33178 | 31.17691 | 32377 ft | 476 kts | 357° |
| 2026-05-04 12:25 | 28.36475 | 31.18064 | 32507 ft | 475 kts | 357° |
| 2026-05-04 12:25 | 28.39773 | 31.18432 | 32647 ft | 475 kts | 357° |
| 2026-05-04 12:25 | 28.43065 | 31.18799 | 32783 ft | 475 kts | 357° |
| 2026-05-04 12:25 | 28.46306 | 31.19161 | 32902 ft | 475 kts | 357° |
| 2026-05-04 12:26 | 28.49597 | 31.19530 | 33029 ft | 474 kts | 357° |
| 2026-05-04 12:26 | 28.52882 | 31.19899 | 33159 ft | 474 kts | 357° |
| 2026-05-04 12:26 | 28.56163 | 31.20268 | 33285 ft | 474 kts | 357° |
| 2026-05-04 12:26 | 28.59447 | 31.20639 | 33387 ft | 474 kts | 357° |
| 2026-05-04 12:27 | 28.62734 | 31.21009 | 33489 ft | 474 kts | 357° |
| 2026-05-04 12:27 | 28.66015 | 31.21380 | 33621 ft | 473 kts | 357° |
| 2026-05-04 12:27 | 28.69296 | 31.21751 | 33735 ft | 473 kts | 356° |
| 2026-05-04 12:27 | 28.72573 | 31.22127 | 33809 ft | 474 kts | 357° |
| 2026-05-04 12:28 | 28.79143 | 31.22919 | 34023 ft | 474 kts | 357° |
| 2026-05-04 12:28 | 28.85653 | 31.23714 | 34198 ft | 474 kts | 357° |
| 2026-05-04 12:29 | 28.92212 | 31.24511 | 34346 ft | 474 kts | 357° |
| 2026-05-04 12:29 | 28.98767 | 31.25305 | 34508 ft | 473 kts | 357° |
| 2026-05-04 12:30 | 29.05325 | 31.26100 | 34653 ft | 474 kts | 357° |
| 2026-05-04 12:30 | 29.11893 | 31.26897 | 34804 ft | 473 kts | 356° |
| 2026-05-04 12:31 | 29.18457 | 31.27695 | 34916 ft | 474 kts | 356° |
| 2026-05-04 12:31 | 29.24967 | 31.28489 | 35118 ft | 472 kts | 356° |
| 2026-05-04 12:32 | 29.28226 | 31.28887 | 35260 ft | 470 kts | 356° |
| 2026-05-04 12:32 | 29.34726 | 31.29679 | 35451 ft | 469 kts | 356° |
| 2026-05-04 12:33 | 29.41202 | 31.31372 | 35503 ft | 491 kts | 14° |
| 2026-05-04 12:33 | 29.44297 | 31.33133 | 35564 ft | 502 kts | 23° |
| 2026-05-04 12:33 | 29.47280 | 31.35227 | 35636 ft | 503 kts | 24° |
| 2026-05-04 12:34 | 29.53221 | 31.39506 | 35703 ft | 504 kts | 24° |
| 2026-05-04 12:34 | 29.59195 | 31.43736 | 35829 ft | 503 kts | 23° |
| 2026-05-04 12:35 | 29.64168 | 31.47205 | 35926 ft | 502 kts | 23° |
| 2026-05-04 12:35 | 29.67151 | 31.49281 | 36047 ft | 500 kts | 23° |
| 2026-05-04 12:35 | 29.71090 | 31.52024 | 36098 ft | 500 kts | 23° |
| 2026-05-04 12:36 | 29.76076 | 31.55504 | 36098 ft | 500 kts | 23° |
| 2026-05-04 12:36 | 29.82031 | 31.59669 | 36096 ft | 501 kts | 23° |
| 2026-05-04 12:37 | 29.87986 | 31.63740 | 36076 ft | 495 kts | 16° |
| 2026-05-04 12:37 | 29.91165 | 31.65036 | 36092 ft | 476 kts | 2° |
| 2026-05-04 12:37 | 29.94391 | 31.65554 | 36079 ft | 461 kts | 351° |
| 2026-05-04 12:37 | 29.97534 | 31.65392 | 36077 ft | 444 kts | 340° |
| 2026-05-04 12:38 | 30.00559 | 31.64774 | 36096 ft | 442 kts | 339° |
| 2026-05-04 12:38 | 30.06638 | 31.63603 | 36088 ft | 443 kts | 340° |
| 2026-05-04 12:39 | 30.12746 | 31.62495 | 36083 ft | 445 kts | 341° |
| 2026-05-04 12:39 | 30.18873 | 31.61400 | 36081 ft | 445 kts | 341° |
| 2026-05-04 12:40 | 30.25000 | 31.60302 | 36073 ft | 446 kts | 341° |
| 2026-05-04 12:40 | 30.31131 | 31.59199 | 36073 ft | 446 kts | 341° |
| 2026-05-04 12:41 | 30.37231 | 31.58099 | 36073 ft | 446 kts | 340° |
| 2026-05-04 12:41 | 30.43373 | 31.56990 | 36068 ft | 447 kts | 340° |
| 2026-05-04 12:42 | 30.49519 | 31.55879 | 36067 ft | 447 kts | 340° |
| 2026-05-04 12:42 | 30.55679 | 31.54765 | 36068 ft | 447 kts | 340° |
| 2026-05-04 12:43 | 30.61829 | 31.53650 | 36057 ft | 447 kts | 340° |
| 2026-05-04 12:43 | 30.67946 | 31.52540 | 36069 ft | 447 kts | 340° |
| 2026-05-04 12:44 | 30.74103 | 31.51421 | 36066 ft | 448 kts | 340° |
| 2026-05-04 12:44 | 30.80268 | 31.50299 | 36065 ft | 448 kts | 340° |
| 2026-05-04 12:45 | 30.86426 | 31.49175 | 36065 ft | 448 kts | 340° |
| 2026-05-04 12:45 | 30.92589 | 31.48049 | 36069 ft | 448 kts | 340° |
| 2026-05-04 12:46 | 30.98752 | 31.46921 | 36062 ft | 448 kts | 340° |
| 2026-05-04 12:46 | 31.04874 | 31.45799 | 36069 ft | 447 kts | 340° |
| 2026-05-04 12:47 | 31.11023 | 31.44670 | 36072 ft | 447 kts | 340° |
| 2026-05-04 12:47 | 31.17178 | 31.43539 | 36060 ft | 447 kts | 340° |
| 2026-05-04 12:48 | 31.23316 | 31.42410 | 36068 ft | 446 kts | 340° |
| 2026-05-04 12:48 | 31.29443 | 31.41280 | 36071 ft | 446 kts | 340° |
| 2026-05-04 12:49 | 31.35571 | 31.40144 | 36076 ft | 445 kts | 340° |
| 2026-05-04 12:49 | 31.41651 | 31.39015 | 36076 ft | 445 kts | 340° |
| 2026-05-04 12:50 | 31.47772 | 31.37878 | 36073 ft | 445 kts | 340° |
| 2026-05-04 12:50 | 31.53887 | 31.36740 | 36075 ft | 445 kts | 340° |
| 2026-05-04 12:51 | 31.60067 | 31.35852 | 36070 ft | 450 kts | 345° |
| 2026-05-04 12:51 | 31.66320 | 31.35273 | 36073 ft | 451 kts | 345° |
| 2026-05-04 12:52 | 31.72571 | 31.34675 | 36074 ft | 450 kts | 345° |
| 2026-05-04 12:52 | 31.78817 | 31.34030 | 36074 ft | 450 kts | 345° |
| 2026-05-04 12:53 | 31.85054 | 31.33379 | 36069 ft | 450 kts | 345° |
| 2026-05-04 12:53 | 31.91293 | 31.32724 | 36060 ft | 450 kts | 345° |
| 2026-05-04 12:54 | 31.97503 | 31.32066 | 36053 ft | 450 kts | 344° |
| 2026-05-04 12:54 | 32.03752 | 31.31404 | 36049 ft | 451 kts | 344° |
| 2026-05-04 12:55 | 32.10003 | 31.30739 | 36038 ft | 451 kts | 344° |
| 2026-05-04 12:55 | 32.16251 | 31.30071 | 36042 ft | 451 kts | 344° |
| 2026-05-04 12:56 | 32.22503 | 31.29400 | 36037 ft | 451 kts | 344° |
| 2026-05-04 12:56 | 32.28715 | 31.28731 | 36035 ft | 451 kts | 344° |
| 2026-05-04 12:57 | 32.34966 | 31.28057 | 36033 ft | 451 kts | 344° |
| 2026-05-04 12:57 | 32.41212 | 31.27383 | 36030 ft | 451 kts | 344° |
| 2026-05-04 12:58 | 32.47453 | 31.26708 | 36027 ft | 450 kts | 344° |
| 2026-05-04 12:58 | 32.53690 | 31.26033 | 36024 ft | 449 kts | 344° |
| 2026-05-04 12:59 | 32.59658 | 31.24549 | 36025 ft | 427 kts | 329° |
| 2026-05-04 12:59 | 32.64909 | 31.21536 | 36009 ft | 418 kts | 324° |
| 2026-05-04 13:00 | 32.70106 | 31.18443 | 36012 ft | 417 kts | 324° |
| 2026-05-04 13:00 | 32.75285 | 31.15399 | 36007 ft | 417 kts | 324° |
| 2026-05-04 13:01 | 32.80489 | 31.12352 | 36005 ft | 417 kts | 324° |
| 2026-05-04 13:01 | 32.85699 | 31.09300 | 36003 ft | 417 kts | 324° |
| 2026-05-04 13:02 | 32.90901 | 31.06247 | 36001 ft | 417 kts | 324° |
| 2026-05-04 13:02 | 32.96111 | 31.03185 | 36001 ft | 417 kts | 324° |
| 2026-05-04 13:03 | 33.01312 | 31.00123 | 36004 ft | 417 kts | 324° |
| 2026-05-04 13:03 | 33.06491 | 30.97076 | 35997 ft | 418 kts | 326° |
| 2026-05-04 13:03 | 33.09240 | 30.95816 | 35990 ft | 429 kts | 334° |
| 2026-05-04 13:04 | 33.12174 | 30.94995 | 35993 ft | 438 kts | 341° |
| 2026-05-04 13:04 | 33.18368 | 30.94562 | 35993 ft | 449 kts | 348° |
| 2026-05-04 13:05 | 33.24624 | 30.94404 | 35989 ft | 449 kts | 348° |
| 2026-05-04 13:05 | 33.30833 | 30.94213 | 35987 ft | 448 kts | 348° |
| 2026-05-04 13:06 | 33.37068 | 30.93988 | 35982 ft | 448 kts | 348° |
| 2026-05-04 13:06 | 33.43303 | 30.93752 | 35980 ft | 447 kts | 348° |
| 2026-05-04 13:07 | 33.49521 | 30.93515 | 35971 ft | 447 kts | 348° |
| 2026-05-04 13:07 | 33.55735 | 30.93280 | 35968 ft | 446 kts | 348° |
| 2026-05-04 13:08 | 33.61944 | 30.93045 | 35963 ft | 446 kts | 348° |
| 2026-05-04 13:08 | 33.68141 | 30.92811 | 35961 ft | 445 kts | 348° |
| 2026-05-04 13:09 | 33.74343 | 30.92575 | 35959 ft | 445 kts | 348° |
| 2026-05-04 13:09 | 33.80496 | 30.92341 | 35953 ft | 445 kts | 348° |
| 2026-05-04 13:10 | 33.86682 | 30.92105 | 35947 ft | 445 kts | 348° |
| 2026-05-04 13:10 | 33.92878 | 30.91869 | 35945 ft | 445 kts | 348° |
| 2026-05-04 13:11 | 33.99069 | 30.91598 | 35945 ft | 445 kts | 348° |
| 2026-05-04 13:11 | 34.05263 | 30.91239 | 35935 ft | 445 kts | 348° |
| 2026-05-04 13:12 | 34.11457 | 30.90882 | 35931 ft | 446 kts | 348° |
| 2026-05-04 13:12 | 34.17670 | 30.90535 | 35929 ft | 447 kts | 348° |
| 2026-05-04 13:13 | 34.23882 | 30.90190 | 35930 ft | 447 kts | 348° |
| 2026-05-04 13:13 | 34.30105 | 30.89872 | 35926 ft | 448 kts | 349° |
| 2026-05-04 13:14 | 34.36345 | 30.89574 | 35922 ft | 449 kts | 349° |
| 2026-05-04 13:14 | 34.42552 | 30.89273 | 35915 ft | 449 kts | 349° |
| 2026-05-04 13:15 | 34.48808 | 30.88967 | 35913 ft | 450 kts | 350° |
| 2026-05-04 13:15 | 34.55070 | 30.88658 | 35911 ft | 450 kts | 350° |
| 2026-05-04 13:16 | 34.61349 | 30.88349 | 35908 ft | 451 kts | 350° |
| 2026-05-04 13:16 | 34.67599 | 30.88106 | 35903 ft | 452 kts | 352° |
| 2026-05-04 13:17 | 34.73897 | 30.87916 | 35896 ft | 453 kts | 352° |
| 2026-05-04 13:17 | 34.80200 | 30.87720 | 35894 ft | 453 kts | 352° |
| 2026-05-04 13:18 | 34.86510 | 30.87514 | 35890 ft | 454 kts | 352° |
| 2026-05-04 13:18 | 34.92823 | 30.87304 | 35883 ft | 454 kts | 352° |
| 2026-05-04 13:19 | 34.99153 | 30.87093 | 35882 ft | 454 kts | 352° |
| 2026-05-04 13:19 | 35.05481 | 30.86883 | 35879 ft | 455 kts | 352° |
| 2026-05-04 13:20 | 35.11770 | 30.86673 | 35874 ft | 455 kts | 353° |
| 2026-05-04 13:20 | 35.18103 | 30.86462 | 35863 ft | 455 kts | 353° |
| 2026-05-04 13:21 | 35.24445 | 30.86250 | 35868 ft | 455 kts | 353° |
| 2026-05-04 13:21 | 35.30778 | 30.86038 | 35862 ft | 455 kts | 353° |
| 2026-05-04 13:22 | 35.36044 | 30.85862 | 35859 ft | 455 kts | 353° |
| 2026-05-04 13:22 | 35.42375 | 30.85650 | 35862 ft | 455 kts | 353° |
| 2026-05-04 13:23 | 35.48706 | 30.85437 | 35859 ft | 455 kts | 353° |
| 2026-05-04 13:23 | 35.55038 | 30.85224 | 35856 ft | 455 kts | 353° |
| 2026-05-04 13:24 | 35.61369 | 30.85010 | 35852 ft | 455 kts | 354° |
| 2026-05-04 13:24 | 35.67680 | 30.84687 | 35851 ft | 454 kts | 352° |
| 2026-05-04 13:25 | 35.77097 | 30.84079 | 35847 ft | 454 kts | 353° |
| 2026-05-04 13:25 | 35.83408 | 30.83691 | 35848 ft | 454 kts | 353° |
| 2026-05-04 13:26 | 35.89717 | 30.83311 | 35845 ft | 454 kts | 353° |
| 2026-05-04 13:26 | 35.96026 | 30.82931 | 35846 ft | 454 kts | 353° |
| 2026-05-04 13:27 | 36.02337 | 30.82549 | 35848 ft | 454 kts | 353° |
| 2026-05-04 13:27 | 36.08661 | 30.82240 | 35841 ft | 455 kts | 355° |
| 2026-05-04 13:28 | 36.14994 | 30.82057 | 35848 ft | 455 kts | 355° |
| 2026-05-04 13:28 | 36.21284 | 30.81870 | 35847 ft | 455 kts | 355° |
| 2026-05-04 13:29 | 36.27605 | 30.81662 | 35854 ft | 454 kts | 355° |
| 2026-05-04 13:29 | 36.33920 | 30.81450 | 35849 ft | 454 kts | 355° |
| 2026-05-04 13:30 | 36.40233 | 30.81239 | 35850 ft | 453 kts | 355° |
| 2026-05-04 13:30 | 36.46498 | 30.81026 | 35850 ft | 451 kts | 355° |
| 2026-05-04 13:31 | 36.52777 | 30.80809 | 35858 ft | 450 kts | 355° |
| 2026-05-04 13:31 | 36.59028 | 30.80593 | 35863 ft | 449 kts | 355° |
| 2026-05-04 13:32 | 36.65259 | 30.80378 | 35871 ft | 447 kts | 355° |
| 2026-05-04 13:32 | 36.71437 | 30.80164 | 35883 ft | 446 kts | 355° |
| 2026-05-04 13:33 | 36.77632 | 30.79949 | 35884 ft | 445 kts | 355° |
| 2026-05-04 13:33 | 36.83806 | 30.79735 | 35889 ft | 443 kts | 355° |
| 2026-05-04 13:34 | 36.89977 | 30.79520 | 35884 ft | 443 kts | 355° |
| 2026-05-04 13:34 | 36.96138 | 30.79833 | 35892 ft | 444 kts | 3° |
| 2026-05-04 13:35 | 37.05343 | 30.81246 | 35887 ft | 444 kts | 4° |
| 2026-05-04 13:36 | 37.11469 | 30.82168 | 35888 ft | 443 kts | 4° |
| 2026-05-04 13:36 | 37.17614 | 30.83052 | 35893 ft | 444 kts | 3° |
| 2026-05-04 13:37 | 37.23756 | 30.83921 | 35891 ft | 444 kts | 3° |
| 2026-05-04 13:37 | 37.29869 | 30.84786 | 35880 ft | 444 kts | 3° |
| 2026-05-04 13:38 | 37.36008 | 30.85658 | 35895 ft | 444 kts | 3° |
| 2026-05-04 13:38 | 37.42151 | 30.86531 | 35897 ft | 444 kts | 3° |
| 2026-05-04 13:39 | 37.48297 | 30.87407 | 35897 ft | 445 kts | 3° |
| 2026-05-04 13:39 | 37.54451 | 30.88286 | 35906 ft | 446 kts | 3° |
| 2026-05-04 13:40 | 37.60623 | 30.89169 | 35914 ft | 447 kts | 3° |
| 2026-05-04 13:40 | 37.66804 | 30.90055 | 35921 ft | 448 kts | 4° |
| 2026-05-04 13:41 | 37.73000 | 30.90944 | 35921 ft | 448 kts | 4° |
| 2026-05-04 13:41 | 37.79208 | 30.91837 | 35930 ft | 449 kts | 4° |
| 2026-05-04 13:42 | 37.88533 | 30.93181 | 35946 ft | 450 kts | 4° |
| 2026-05-04 13:42 | 37.94718 | 30.94074 | 35941 ft | 450 kts | 4° |
| 2026-05-04 13:43 | 38.00927 | 30.94973 | 35940 ft | 448 kts | 4° |
| 2026-05-04 13:43 | 38.07116 | 30.95870 | 35937 ft | 446 kts | 4° |
| 2026-05-04 13:44 | 38.13277 | 30.96764 | 35946 ft | 444 kts | 4° |
| 2026-05-04 13:44 | 38.19417 | 30.97657 | 35944 ft | 443 kts | 4° |
| 2026-05-04 13:45 | 38.25524 | 30.98546 | 35942 ft | 441 kts | 4° |
| 2026-05-04 13:45 | 38.31613 | 30.99434 | 35954 ft | 440 kts | 4° |
| 2026-05-04 13:46 | 38.37687 | 31.00322 | 35938 ft | 439 kts | 4° |
| 2026-05-04 13:46 | 38.43709 | 31.01202 | 35944 ft | 438 kts | 4° |
| 2026-05-04 13:47 | 38.49733 | 31.00860 | 35958 ft | 433 kts | 347° |
| 2026-05-04 13:47 | 38.55447 | 30.98516 | 35960 ft | 432 kts | 338° |
| 2026-05-04 13:48 | 38.61069 | 30.95745 | 35954 ft | 433 kts | 338° |
| 2026-05-04 13:48 | 38.66715 | 30.92988 | 35950 ft | 434 kts | 339° |
| 2026-05-04 13:49 | 38.72373 | 30.90253 | 35946 ft | 435 kts | 339° |
| 2026-05-04 13:49 | 38.78008 | 30.87535 | 35951 ft | 436 kts | 339° |
| 2026-05-04 13:50 | 38.83687 | 30.84793 | 35949 ft | 437 kts | 339° |
| 2026-05-04 13:50 | 38.89380 | 30.82039 | 35953 ft | 437 kts | 339° |
| 2026-05-04 13:51 | 38.95084 | 30.79273 | 35950 ft | 438 kts | 339° |
| 2026-05-04 13:51 | 39.00791 | 30.76502 | 35950 ft | 439 kts | 339° |
| 2026-05-04 13:52 | 39.09366 | 30.72329 | 35949 ft | 439 kts | 339° |
| 2026-05-04 13:53 | 39.15085 | 30.69540 | 35953 ft | 439 kts | 339° |
| 2026-05-04 13:53 | 39.20763 | 30.66765 | 35955 ft | 439 kts | 339° |
| 2026-05-04 13:54 | 39.29327 | 30.62572 | 35959 ft | 438 kts | 339° |
| 2026-05-04 13:55 | 39.37872 | 30.58376 | 35958 ft | 438 kts | 340° |
| 2026-05-04 13:55 | 39.46426 | 30.54165 | 35958 ft | 438 kts | 340° |
| 2026-05-04 13:56 | 39.52109 | 30.51362 | 35954 ft | 437 kts | 340° |
| 2026-05-04 13:57 | 39.60529 | 30.46826 | 35947 ft | 437 kts | 336° |
| 2026-05-04 13:58 | 39.71554 | 30.40292 | 35967 ft | 437 kts | 336° |
| 2026-05-04 13:58 | 39.79874 | 30.35415 | 35968 ft | 437 kts | 337° |
| 2026-05-04 13:59 | 39.85428 | 30.32164 | 35961 ft | 437 kts | 337° |
| 2026-05-04 14:00 | 39.93767 | 30.27272 | 35970 ft | 438 kts | 337° |
| 2026-05-04 14:00 | 40.02078 | 30.22383 | 35965 ft | 439 kts | 337° |
| 2026-05-04 14:01 | 40.07654 | 30.19095 | 35976 ft | 440 kts | 337° |
| 2026-05-04 14:02 | 40.16030 | 30.14145 | 35978 ft | 441 kts | 337° |
| 2026-05-04 14:02 | 40.21625 | 30.10830 | 35981 ft | 441 kts | 337° |
| 2026-05-04 14:03 | 40.27225 | 30.07507 | 35990 ft | 442 kts | 337° |
| 2026-05-04 14:03 | 40.32822 | 30.04179 | 35997 ft | 442 kts | 338° |
| 2026-05-04 14:04 | 40.41182 | 29.99198 | 36012 ft | 441 kts | 338° |
| 2026-05-04 14:04 | 40.46771 | 29.95859 | 36022 ft | 442 kts | 338° |
| 2026-05-04 14:05 | 40.55180 | 29.90825 | 36033 ft | 442 kts | 338° |
| 2026-05-04 14:06 | 40.60777 | 29.87466 | 36034 ft | 443 kts | 338° |
| 2026-05-04 14:06 | 40.66354 | 29.84114 | 36032 ft | 443 kts | 338° |
| 2026-05-04 14:07 | 40.71970 | 29.80731 | 36032 ft | 443 kts | 338° |
| 2026-05-04 14:07 | 40.77577 | 29.77349 | 36033 ft | 443 kts | 338° |
| 2026-05-04 14:08 | 40.83180 | 29.73961 | 36044 ft | 443 kts | 338° |
| 2026-05-04 14:08 | 40.88784 | 29.70567 | 36023 ft | 443 kts | 338° |
| 2026-05-04 14:09 | 40.97163 | 29.65481 | 36015 ft | 444 kts | 338° |
| 2026-05-04 14:10 | 41.05581 | 29.60356 | 36020 ft | 444 kts | 338° |
| 2026-05-04 14:10 | 41.10246 | 29.57510 | 36014 ft | 444 kts | 338° |
| 2026-05-04 14:11 | 41.15858 | 29.54080 | 36019 ft | 444 kts | 338° |
| 2026-05-04 14:11 | 41.24457 | 29.49682 | 36003 ft | 439 kts | 347° |
| 2026-05-04 14:12 | 41.30347 | 29.47546 | 36001 ft | 438 kts | 347° |
| 2026-05-04 14:13 | 41.39160 | 29.44296 | 35998 ft | 437 kts | 347° |
| 2026-05-04 14:13 | 41.44986 | 29.42087 | 35997 ft | 437 kts | 347° |
| 2026-05-04 14:14 | 41.50829 | 29.39855 | 36008 ft | 437 kts | 347° |
| 2026-05-04 14:14 | 41.59613 | 29.36492 | 35991 ft | 437 kts | 347° |
| 2026-05-04 14:15 | 41.71315 | 29.32000 | 35994 ft | 437 kts | 347° |
| 2026-05-04 14:16 | 41.80104 | 29.28616 | 35995 ft | 438 kts | 347° |
| 2026-05-04 14:17 | 41.88882 | 29.25226 | 35986 ft | 440 kts | 347° |
| 2026-05-04 14:18 | 41.97718 | 29.21803 | 35991 ft | 441 kts | 347° |
| 2026-05-04 14:19 | 42.09548 | 29.17206 | 36003 ft | 442 kts | 347° |
| 2026-05-04 14:19 | 42.15443 | 29.14782 | 35983 ft | 445 kts | 341° |
| 2026-05-04 14:20 | 42.20800 | 29.10580 | 35994 ft | 452 kts | 325° |
| 2026-05-04 14:20 | 42.25747 | 29.05303 | 36001 ft | 453 kts | 325° |
| 2026-05-04 14:21 | 42.33148 | 28.97400 | 35997 ft | 454 kts | 325° |
| 2026-05-04 14:21 | 42.38120 | 28.92139 | 36003 ft | 454 kts | 325° |
| 2026-05-04 14:22 | 42.43103 | 28.86874 | 35999 ft | 454 kts | 325° |
| 2026-05-04 14:22 | 42.48091 | 28.81595 | 36000 ft | 455 kts | 325° |
| 2026-05-04 14:23 | 42.55568 | 28.73659 | 36009 ft | 455 kts | 325° |
| 2026-05-04 14:24 | 42.60553 | 28.68353 | 36010 ft | 456 kts | 325° |
| 2026-05-04 14:24 | 42.65540 | 28.63034 | 36008 ft | 456 kts | 324° |
| 2026-05-04 14:25 | 42.70524 | 28.57707 | 36009 ft | 456 kts | 324° |
| 2026-05-04 14:25 | 42.77991 | 28.49704 | 36015 ft | 455 kts | 324° |
| 2026-05-04 14:26 | 42.82939 | 28.44387 | 36018 ft | 455 kts | 324° |
| 2026-05-04 14:26 | 42.87904 | 28.39041 | 36016 ft | 455 kts | 324° |
| 2026-05-04 14:27 | 42.92865 | 28.33689 | 36019 ft | 455 kts | 324° |
| 2026-05-04 14:27 | 42.97826 | 28.28324 | 36018 ft | 455 kts | 324° |
| 2026-05-04 14:28 | 43.02313 | 28.23463 | 36019 ft | 455 kts | 324° |
| 2026-05-04 14:28 | 43.07265 | 28.18085 | 36016 ft | 455 kts | 324° |
| 2026-05-04 14:29 | 43.17178 | 28.07289 | 36020 ft | 455 kts | 324° |
| 2026-05-04 14:30 | 43.22095 | 28.01917 | 36021 ft | 455 kts | 323° |
| 2026-05-04 14:31 | 43.29528 | 27.93773 | 36020 ft | 456 kts | 323° |
| 2026-05-04 14:32 | 43.39430 | 27.82884 | 36020 ft | 456 kts | 323° |
| 2026-05-04 14:32 | 43.44377 | 27.77426 | 36017 ft | 456 kts | 323° |
| 2026-05-04 14:33 | 43.49319 | 27.71962 | 36020 ft | 455 kts | 323° |
| 2026-05-04 14:33 | 43.54253 | 27.66494 | 36020 ft | 455 kts | 323° |
| 2026-05-04 14:34 | 43.59158 | 27.61049 | 36014 ft | 455 kts | 323° |
| 2026-05-04 14:34 | 43.64089 | 27.55562 | 36016 ft | 455 kts | 323° |
| 2026-05-04 14:35 | 43.69020 | 27.50062 | 36020 ft | 455 kts | 323° |
| 2026-05-04 14:35 | 43.73942 | 27.44560 | 36020 ft | 455 kts | 322° |
| 2026-05-04 14:36 | 43.78872 | 27.39038 | 36024 ft | 455 kts | 322° |
| 2026-05-04 14:36 | 43.83765 | 27.33545 | 36025 ft | 456 kts | 322° |
| 2026-05-04 14:37 | 43.88691 | 27.28003 | 36021 ft | 456 kts | 322° |
| 2026-05-04 14:37 | 43.93627 | 27.22438 | 36020 ft | 457 kts | 322° |
| 2026-05-04 14:38 | 43.98573 | 27.16850 | 36036 ft | 458 kts | 322° |
| 2026-05-04 14:38 | 44.03524 | 27.11242 | 36033 ft | 459 kts | 322° |
| 2026-05-04 14:39 | 44.08481 | 27.05615 | 36027 ft | 460 kts | 322° |
| 2026-05-04 14:39 | 44.13407 | 27.00012 | 36031 ft | 460 kts | 322° |
| 2026-05-04 14:40 | 44.20842 | 26.91531 | 36037 ft | 460 kts | 321° |
| 2026-05-04 14:40 | 44.25780 | 26.85881 | 36037 ft | 459 kts | 321° |
| 2026-05-04 14:41 | 44.30714 | 26.80223 | 36031 ft | 458 kts | 321° |
| 2026-05-04 14:42 | 44.40546 | 26.68914 | 36028 ft | 456 kts | 321° |
| 2026-05-04 14:42 | 44.45405 | 26.63303 | 36033 ft | 455 kts | 321° |
| 2026-05-04 14:43 | 44.50142 | 26.57823 | 36031 ft | 454 kts | 321° |
| 2026-05-04 14:43 | 44.55004 | 26.52187 | 36031 ft | 453 kts | 321° |
| 2026-05-04 14:44 | 44.59856 | 26.46549 | 36042 ft | 452 kts | 321° |
| 2026-05-04 14:44 | 44.64699 | 26.40909 | 36038 ft | 452 kts | 321° |
| 2026-05-04 14:45 | 44.69528 | 26.35272 | 36042 ft | 451 kts | 321° |
| 2026-05-04 14:45 | 44.74352 | 26.29629 | 36038 ft | 451 kts | 321° |
| 2026-05-04 14:46 | 44.79167 | 26.23983 | 36035 ft | 450 kts | 321° |
| 2026-05-04 14:46 | 44.83945 | 26.18369 | 36031 ft | 449 kts | 320° |
| 2026-05-04 14:47 | 44.88741 | 26.12720 | 36042 ft | 449 kts | 320° |
| 2026-05-04 14:47 | 44.93542 | 26.07053 | 36031 ft | 449 kts | 320° |
| 2026-05-04 14:48 | 44.98329 | 26.01391 | 36026 ft | 449 kts | 320° |
| 2026-05-04 14:48 | 45.03115 | 25.95716 | 36027 ft | 448 kts | 320° |
| 2026-05-04 14:49 | 45.07859 | 25.90078 | 36027 ft | 448 kts | 320° |
| 2026-05-04 14:49 | 45.12625 | 25.84401 | 36033 ft | 448 kts | 320° |
| 2026-05-04 14:50 | 45.17396 | 25.78706 | 36036 ft | 448 kts | 320° |
| 2026-05-04 14:50 | 45.22160 | 25.73007 | 36043 ft | 448 kts | 320° |
| 2026-05-04 14:51 | 45.26914 | 25.67304 | 36059 ft | 447 kts | 320° |
| 2026-05-04 14:51 | 45.31671 | 25.61587 | 36051 ft | 448 kts | 319° |
| 2026-05-04 14:52 | 45.36420 | 25.55865 | 36047 ft | 447 kts | 319° |
| 2026-05-04 14:52 | 45.41121 | 25.50190 | 36034 ft | 446 kts | 319° |
| 2026-05-04 14:53 | 45.45844 | 25.44475 | 36045 ft | 445 kts | 319° |
| 2026-05-04 14:53 | 45.50557 | 25.38759 | 36049 ft | 444 kts | 319° |
| 2026-05-04 14:54 | 45.55264 | 25.33036 | 36045 ft | 444 kts | 319° |
| 2026-05-04 14:54 | 45.59966 | 25.27307 | 36047 ft | 444 kts | 319° |
| 2026-05-04 14:55 | 45.64664 | 25.21567 | 36046 ft | 444 kts | 319° |
| 2026-05-04 14:55 | 45.69330 | 25.15857 | 36049 ft | 444 kts | 319° |
| 2026-05-04 14:56 | 45.74027 | 25.10095 | 36041 ft | 445 kts | 319° |
| 2026-05-04 14:56 | 45.78733 | 25.04308 | 36043 ft | 446 kts | 320° |
| 2026-05-04 14:57 | 45.83446 | 24.98500 | 36037 ft | 447 kts | 320° |
| 2026-05-04 14:57 | 45.87373 | 24.93650 | 36036 ft | 448 kts | 320° |
| 2026-05-04 14:58 | 45.92102 | 24.87796 | 36031 ft | 449 kts | 320° |
| 2026-05-04 14:58 | 45.96838 | 24.81920 | 36024 ft | 450 kts | 320° |
| 2026-05-04 14:59 | 46.01583 | 24.76019 | 36025 ft | 451 kts | 320° |
| 2026-05-04 15:00 | 46.08667 | 24.67184 | 36022 ft | 451 kts | 320° |
| 2026-05-04 15:00 | 46.13407 | 24.61255 | 36021 ft | 451 kts | 320° |
| 2026-05-04 15:01 | 46.20477 | 24.52384 | 36027 ft | 450 kts | 320° |
| 2026-05-04 15:01 | 46.25196 | 24.46445 | 36034 ft | 450 kts | 320° |
| 2026-05-04 15:02 | 46.29914 | 24.40495 | 36042 ft | 449 kts | 320° |
| 2026-05-04 15:02 | 46.34622 | 24.34540 | 36040 ft | 449 kts | 320° |
| 2026-05-04 15:03 | 46.39316 | 24.28591 | 36046 ft | 448 kts | 320° |
| 2026-05-04 15:03 | 46.44005 | 24.22636 | 36044 ft | 448 kts | 320° |
| 2026-05-04 15:04 | 46.48688 | 24.16673 | 36045 ft | 447 kts | 320° |
| 2026-05-04 15:04 | 46.53361 | 24.10708 | 36041 ft | 447 kts | 320° |
| 2026-05-04 15:05 | 46.58032 | 24.04731 | 36041 ft | 447 kts | 320° |
| 2026-05-04 15:05 | 46.62668 | 23.98786 | 36048 ft | 446 kts | 320° |
| 2026-05-04 15:06 | 46.67331 | 23.92790 | 36062 ft | 446 kts | 320° |
| 2026-05-04 15:07 | 46.74302 | 23.83803 | 36073 ft | 446 kts | 320° |
| 2026-05-04 15:07 | 46.78915 | 23.77836 | 36044 ft | 446 kts | 320° |
| 2026-05-04 15:08 | 46.83549 | 23.71828 | 36052 ft | 445 kts | 320° |
| 2026-05-04 15:08 | 46.88189 | 23.65798 | 36052 ft | 445 kts | 320° |
| 2026-05-04 15:09 | 46.92820 | 23.59765 | 36051 ft | 446 kts | 320° |
| 2026-05-04 15:09 | 46.97426 | 23.53751 | 36049 ft | 446 kts | 320° |
| 2026-05-04 15:10 | 47.04377 | 23.44647 | 36055 ft | 447 kts | 320° |
| 2026-05-04 15:11 | 47.11323 | 23.35515 | 36059 ft | 447 kts | 320° |
| 2026-05-04 15:11 | 47.15951 | 23.29414 | 36069 ft | 447 kts | 320° |
| 2026-05-04 15:12 | 47.20578 | 23.23297 | 36063 ft | 447 kts | 319° |
| 2026-05-04 15:12 | 47.25200 | 23.17174 | 36066 ft | 447 kts | 319° |
| 2026-05-04 15:13 | 47.29822 | 23.11034 | 36065 ft | 447 kts | 319° |
| 2026-05-04 15:13 | 47.34438 | 23.04887 | 36074 ft | 447 kts | 319° |
| 2026-05-04 15:14 | 47.39015 | 22.98777 | 36072 ft | 446 kts | 319° |
| 2026-05-04 15:14 | 47.43614 | 22.92624 | 36051 ft | 446 kts | 319° |
| 2026-05-04 15:15 | 47.48208 | 22.86461 | 36065 ft | 446 kts | 319° |
| 2026-05-04 15:15 | 47.52794 | 22.80293 | 36056 ft | 445 kts | 319° |
| 2026-05-04 15:16 | 47.59654 | 22.71040 | 36059 ft | 444 kts | 319° |
| 2026-05-04 15:17 | 47.66491 | 22.61783 | 36061 ft | 443 kts | 319° |
| 2026-05-04 15:17 | 47.73305 | 22.52522 | 36064 ft | 442 kts | 319° |
| 2026-05-04 15:18 | 47.77843 | 22.46337 | 36068 ft | 442 kts | 319° |
| 2026-05-04 15:19 | 47.84400 | 22.36681 | 36065 ft | 442 kts | 315° |
| 2026-05-04 15:19 | 47.90722 | 22.26712 | 36059 ft | 443 kts | 315° |
| 2026-05-04 15:20 | 47.94972 | 22.20058 | 36066 ft | 443 kts | 315° |
| 2026-05-04 15:20 | 47.99226 | 22.13415 | 36061 ft | 443 kts | 315° |
| 2026-05-04 15:21 | 48.03485 | 22.06756 | 36067 ft | 443 kts | 315° |
| 2026-05-04 15:22 | 48.09866 | 21.96745 | 36067 ft | 443 kts | 315° |
| 2026-05-04 15:22 | 48.16238 | 21.86707 | 36069 ft | 443 kts | 315° |
| 2026-05-04 15:23 | 48.20484 | 21.79996 | 36065 ft | 443 kts | 315° |
| 2026-05-04 15:23 | 48.24721 | 21.73281 | 36064 ft | 443 kts | 315° |
| 2026-05-04 15:24 | 48.33059 | 21.60018 | 36058 ft | 443 kts | 315° |
| 2026-05-04 15:25 | 48.37282 | 21.53274 | 36052 ft | 442 kts | 315° |
| 2026-05-04 15:26 | 48.43597 | 21.43158 | 36060 ft | 442 kts | 314° |
| 2026-05-04 15:26 | 48.49920 | 21.33107 | 36045 ft | 441 kts | 320° |
| 2026-05-04 15:27 | 48.58003 | 21.26995 | 36052 ft | 436 kts | 347° |
| 2026-05-04 15:28 | 48.66912 | 21.24093 | 36047 ft | 437 kts | 348° |
| 2026-05-04 15:29 | 48.75823 | 21.21104 | 36051 ft | 437 kts | 347° |
| 2026-05-04 15:30 | 48.96621 | 21.13936 | 36041 ft | 438 kts | 347° |
| 2026-05-04 15:31 | 49.05508 | 21.10856 | 36024 ft | 439 kts | 347° |
| 2026-05-04 15:32 | 49.20399 | 21.05668 | 36021 ft | 438 kts | 347° |
| 2026-05-04 15:34 | 49.35215 | 21.00307 | 36008 ft | 438 kts | 341° |
| 2026-05-04 15:34 | 49.44185 | 20.97631 | 36010 ft | 440 kts | 354° |
| 2026-05-04 15:35 | 49.53366 | 20.96609 | 35993 ft | 442 kts | 354° |
| 2026-05-04 15:36 | 49.62537 | 20.95355 | 35997 ft | 444 kts | 353° |
| 2026-05-04 15:36 | 49.68709 | 20.94440 | 35984 ft | 445 kts | 353° |
| 2026-05-04 15:37 | 49.74891 | 20.93518 | 35984 ft | 447 kts | 353° |
| 2026-05-04 15:37 | 49.81093 | 20.92595 | 35983 ft | 448 kts | 353° |
| 2026-05-04 15:38 | 49.87266 | 20.91676 | 35980 ft | 448 kts | 353° |
| 2026-05-04 15:38 | 49.93477 | 20.90749 | 35977 ft | 448 kts | 353° |
| 2026-05-04 15:39 | 49.99699 | 20.89818 | 35972 ft | 449 kts | 353° |
| 2026-05-04 15:40 | 50.09021 | 20.88418 | 35977 ft | 449 kts | 353° |
| 2026-05-04 15:40 | 50.15240 | 20.87474 | 35976 ft | 449 kts | 353° |
| 2026-05-04 15:41 | 50.21463 | 20.86501 | 35973 ft | 449 kts | 353° |
| 2026-05-04 15:41 | 50.27680 | 20.85524 | 35974 ft | 449 kts | 353° |
| 2026-05-04 15:42 | 50.33867 | 20.84552 | 35978 ft | 449 kts | 353° |
| 2026-05-04 15:42 | 50.36985 | 20.84061 | 35810 ft | 452 kts | 353° |
| 2026-05-04 15:42 | 50.40121 | 20.83567 | 35551 ft | 454 kts | 353° |
| 2026-05-04 15:42 | 50.43262 | 20.83072 | 35299 ft | 451 kts | 353° |
| 2026-05-04 15:43 | 50.46383 | 20.82580 | 35052 ft | 449 kts | 353° |
| 2026-05-04 15:43 | 50.49491 | 20.82089 | 34810 ft | 449 kts | 353° |
| 2026-05-04 15:43 | 50.52602 | 20.81597 | 34566 ft | 450 kts | 353° |
| 2026-05-04 15:43 | 50.55714 | 20.81104 | 33834 ft | 449 kts | 353° |
| 2026-05-04 15:44 | 50.58812 | 20.80613 | 33133 ft | 446 kts | 353° |
| 2026-05-04 15:44 | 50.61894 | 20.80124 | 32419 ft | 443 kts | 352° |
| 2026-05-04 15:44 | 50.64958 | 20.79637 | 31676 ft | 441 kts | 352° |
| 2026-05-04 15:44 | 50.68021 | 20.79149 | 30949 ft | 446 kts | 352° |
| 2026-05-04 15:45 | 50.71162 | 20.78645 | 30192 ft | 461 kts | 352° |
| 2026-05-04 15:45 | 50.74330 | 20.78137 | 29245 ft | 463 kts | 352° |
| 2026-05-04 15:45 | 50.77530 | 20.77626 | 28323 ft | 462 kts | 352° |
| 2026-05-04 15:45 | 50.80728 | 20.77116 | 27388 ft | 461 kts | 352° |
| 2026-05-04 15:46 | 50.83914 | 20.76607 | 26546 ft | 457 kts | 352° |
| 2026-05-04 15:46 | 50.87056 | 20.76104 | 25924 ft | 453 kts | 352° |
| 2026-05-04 15:46 | 50.89191 | 20.75761 | 25482 ft | 459 kts | 352° |
| 2026-05-04 15:46 | 50.92350 | 20.75250 | 24805 ft | 462 kts | 352° |
| 2026-05-04 15:47 | 50.95531 | 20.74737 | 24127 ft | 456 kts | 352° |
| 2026-05-04 15:47 | 50.98674 | 20.74232 | 23420 ft | 451 kts | 352° |
| 2026-05-04 15:47 | 51.01778 | 20.73732 | 22650 ft | 446 kts | 352° |
| 2026-05-04 15:47 | 51.04846 | 20.73237 | 21958 ft | 439 kts | 351° |
| 2026-05-04 15:48 | 51.07868 | 20.72747 | 21288 ft | 434 kts | 351° |
| 2026-05-04 15:48 | 51.10852 | 20.72262 | 20637 ft | 428 kts | 351° |
| 2026-05-04 15:48 | 51.16779 | 20.71295 | 19386 ft | 430 kts | 351° |
| 2026-05-04 15:49 | 51.19708 | 20.70818 | 19202 ft | 415 kts | 351° |
| 2026-05-04 15:49 | 51.22538 | 20.70361 | 18988 ft | 401 kts | 351° |
| 2026-05-04 15:49 | 51.25268 | 20.69917 | 18818 ft | 387 kts | 351° |
| 2026-05-04 15:49 | 51.27908 | 20.69556 | 18633 ft | 375 kts | 356° |
| 2026-05-04 15:50 | 51.30459 | 20.70196 | 18086 ft | 381 kts | 16° |
| 2026-05-04 15:50 | 51.32937 | 20.71652 | 17569 ft | 378 kts | 17° |
| 2026-05-04 15:50 | 51.35400 | 20.73057 | 17107 ft | 374 kts | 16° |
| 2026-05-04 15:50 | 51.37843 | 20.74404 | 16661 ft | 369 kts | 16° |
| 2026-05-04 15:51 | 51.40265 | 20.75715 | 16237 ft | 365 kts | 15° |
| 2026-05-04 15:51 | 51.42671 | 20.77035 | 15576 ft | 367 kts | 16° |
| 2026-05-04 15:51 | 51.45134 | 20.78398 | 14495 ft | 382 kts | 16° |
| 2026-05-04 15:51 | 51.47699 | 20.79822 | 13382 ft | 396 kts | 17° |
| 2026-05-04 15:52 | 51.50327 | 20.81287 | 12364 ft | 403 kts | 17° |
| 2026-05-04 15:52 | 51.52972 | 20.82765 | 11605 ft | 402 kts | 17° |
| 2026-05-04 15:52 | 51.55602 | 20.84238 | 11018 ft | 397 kts | 17° |
| 2026-05-04 15:52 | 51.58202 | 20.85692 | 10405 ft | 393 kts | 17° |
| 2026-05-04 15:53 | 51.60748 | 20.87118 | 9774 ft | 390 kts | 16° |
| 2026-05-04 15:53 | 51.63302 | 20.88546 | 9138 ft | 386 kts | 17° |
| 2026-05-04 15:53 | 51.65820 | 20.89955 | 8576 ft | 380 kts | 17° |
| 2026-05-04 15:53 | 51.68305 | 20.91349 | 7950 ft | 377 kts | 17° |
| 2026-05-04 15:54 | 51.70767 | 20.92731 | 7442 ft | 371 kts | 17° |
| 2026-05-04 15:54 | 51.73148 | 20.94075 | 7282 ft | 355 kts | 17° |
| 2026-05-04 15:54 | 51.75428 | 20.95361 | 7157 ft | 339 kts | 17° |
| 2026-05-04 15:54 | 51.77612 | 20.96589 | 7058 ft | 325 kts | 17° |
| 2026-05-04 15:55 | 51.79703 | 20.97767 | 6932 ft | 312 kts | 17° |
| 2026-05-04 15:55 | 51.81717 | 20.98901 | 6808 ft | 300 kts | 17° |
| 2026-05-04 15:55 | 51.83652 | 20.99992 | 6726 ft | 288 kts | 17° |
| 2026-05-04 15:55 | 51.85514 | 21.01044 | 6624 ft | 278 kts | 17° |
| 2026-05-04 15:56 | 51.87294 | 21.02051 | 6477 ft | 270 kts | 17° |
| 2026-05-04 15:56 | 51.89034 | 21.03037 | 6169 ft | 261 kts | 17° |
| 2026-05-04 15:56 | 51.90713 | 21.03988 | 5930 ft | 250 kts | 17° |
| 2026-05-04 15:56 | 51.92327 | 21.04903 | 5650 ft | 242 kts | 17° |
| 2026-05-04 15:57 | 51.93902 | 21.05794 | 5303 ft | 237 kts | 17° |
| 2026-05-04 15:57 | 51.95448 | 21.06672 | 4950 ft | 234 kts | 17° |
| 2026-05-04 15:57 | 51.96979 | 21.07541 | 4562 ft | 233 kts | 17° |
| 2026-05-04 15:57 | 51.98514 | 21.08414 | 4145 ft | 232 kts | 16° |
| 2026-05-04 15:58 | 52.00031 | 21.09290 | 3794 ft | 230 kts | 18° |
| 2026-05-04 15:58 | 52.01420 | 21.10571 | 3366 ft | 235 kts | 44° |
| 2026-05-04 15:58 | 52.02208 | 21.12801 | 3251 ft | 222 kts | 78° |
| 2026-05-04 15:58 | 52.02153 | 21.15212 | 3131 ft | 214 kts | 113° |
| 2026-05-04 15:59 | 52.01299 | 21.17059 | 3012 ft | 201 kts | 151° |
| 2026-05-04 15:59 | 52.00003 | 21.17712 | 2999 ft | 198 kts | 184° |
| 2026-05-04 15:59 | 51.98770 | 21.17010 | 3028 ft | 190 kts | 222° |
| 2026-05-04 15:59 | 51.98097 | 21.15256 | 3059 ft | 182 kts | 257° |
| 2026-05-04 16:00 | 51.98309 | 21.13263 | 3032 ft | 185 kts | 303° |
| 2026-05-04 16:00 | 51.99352 | 21.11919 | 3031 ft | 198 kts | 328° |
| 2026-05-04 16:00 | 52.00558 | 21.10810 | 3014 ft | 200 kts | 326° |
| 2026-05-04 16:00 | 52.01745 | 21.09732 | 2997 ft | 195 kts | 328° |
| 2026-05-04 16:01 | 52.02928 | 21.08695 | 2986 ft | 192 kts | 327° |
| 2026-05-04 16:01 | 52.04110 | 21.07645 | 2824 ft | 197 kts | 327° |
| 2026-05-04 16:01 | 52.05326 | 21.06575 | 2586 ft | 199 kts | 327° |
| 2026-05-04 16:01 | 52.06533 | 21.05513 | 2327 ft | 195 kts | 328° |
| 2026-05-04 16:02 | 52.07706 | 21.04490 | 2068 ft | 187 kts | 328° |
| 2026-05-04 16:02 | 52.08809 | 21.03511 | 1838 ft | 176 kts | 328° |
| 2026-05-04 16:02 | 52.10854 | 21.01730 | 1439 ft | 155 kts | 328° |
| 2026-05-04 16:03 | 52.11817 | 21.00884 | 1187 ft | 157 kts | 327° |
| 2026-05-04 16:03 | 52.12772 | 21.00045 | 985 ft | 157 kts | 326° |
| 2026-05-04 16:03 | 52.13742 | 20.99193 | 757 ft | 159 kts | 326° |
| 2026-05-04 16:03 | 52.14715 | 20.98340 | 537 ft | 159 kts | 327° |
| 2026-05-04 16:04 | 52.15675 | 20.97502 | 365 ft | 154 kts | 327° |
| 2026-05-04 16:04 | 52.16998 | 20.96340 | 335 ft | 50 kts | 332° |
| 2026-05-04 16:04 | 52.17270 | 20.96244 | 337 ft | 19 kts | 1° |
| 2026-05-04 16:05 | 52.17384 | 20.96269 | 338 ft | 11 kts | 38° |
| 2026-05-04 16:05 | 52.17396 | 20.96291 | 332 ft | 0 kts | 55° |
| 2026-05-04 16:05 | 52.17396 | 20.96292 | 332 ft | 0 kts | 55° |
| 2026-05-04 16:06 | 52.17409 | 20.96318 | 335 ft | 7 kts | 45° |
| 2026-05-04 16:06 | 52.17624 | 20.96191 | 338 ft | 15 kts | 331° |
| 2026-05-04 16:07 | 52.17760 | 20.96073 | 337 ft | 17 kts | 331° |
| 2026-05-04 16:07 | 52.17990 | 20.95990 | 335 ft | 8 kts | 59° |
| 2026-05-04 16:08 | 52.18007 | 20.96086 | 338 ft | 10 kts | 78° |
| 2026-05-04 16:08 | 52.17974 | 20.96196 | 336 ft | 0 kts | 167° |